Last 24 Hours

Red Mountain

10 Minute Data | America/Los_Angeles
as of 5/5/26 10:24 PM PDT
Date & Time Temp (°F) Dew Pt (°F) RH (%) Wind Spd (mph) Wind Dir (°) Wind Gust (mph) Wind Gst Dir (°) Daily Max Temp (°F) Daily Min Temp (°F)
5/5/26 - 2220 40.5 40.4 100 5.9 WSW | 243 8.0 WSW | 244 49.0 39.0
5/5/26 - 2210 40.8 40.8 100 6.7 WSW | 244 9.6 WSW | 247 49.0 39.0
5/5/26 - 2200 40.8 40.8 100 7.0 WSW | 251 9.6 WSW | 242 49.0 39.0
5/5/26 - 2150 40.9 40.9 100 7.5 WSW | 251 10.8 WSW | 250 49.0 39.0
5/5/26 - 2140 40.8 40.8 100 7.8 WSW | 256 11.0 WSW | 248 49.0 39.0
5/5/26 - 2130 40.8 40.8 100 6.8 WSW | 250 9.1 W | 260 49.0 39.0
5/5/26 - 2120 40.7 40.7 100 7.0 WSW | 238 9.4 WSW | 246 49.0 39.0
5/5/26 - 2110 40.7 40.7 100 7.3 SW | 235 9.3 SW | 231 49.0 39.0
5/5/26 - 2100 40.5 40.4 100 6.4 SW | 227 8.8 WSW | 238 49.0 39.0
5/5/26 - 2050 40.4 40.3 100 6.6 WSW | 237 8.5 SW | 230 49.0 39.0
5/5/26 - 2040 40.3 40.1 99 7.4 SW | 234 9.8 SW | 226 49.0 39.0
5/5/26 - 2030 40.4 40.1 99 8.8 SW | 230 10.7 SW | 235 49.0 39.0
5/5/26 - 2020 40.5 40.1 98 9.0 SW | 230 11.0 SW | 232 49.0 39.0
5/5/26 - 2010 40.6 40.2 98 9.9 WSW | 237 12.4 SW | 225 49.0 39.0
5/5/26 - 2000 40.8 40.3 98 10.4 SW | 233 12.9 SW | 228 49.0 39.0
5/5/26 - 1950 40.8 40.3 98 9.5 WSW | 237 11.6 WSW | 240 49.0 39.0
5/5/26 - 1940 40.9 40.2 98 10.7 WSW | 237 13.0 WSW | 240 49.0 39.0
5/5/26 - 1930 41.1 40.3 97 11.1 SW | 236 14.5 SW | 234 49.0 39.0
5/5/26 - 1920 41.4 40.6 97 12.4 SW | 233 17.1 WSW | 240 49.0 39.0
5/5/26 - 1910 41.6 40.9 97 10.9 SW | 231 17.3 SW | 222 49.0 39.0
5/5/26 - 1900 41.8 41.1 97 12.3 SW | 236 17.7 WSW | 242 49.0 39.0
5/5/26 - 1850 42.0 41.2 97 14.0 SW | 235 19.0 WSW | 242 49.0 39.0
5/5/26 - 1840 42.2 41.2 96 14.2 WSW | 237 19.5 WSW | 241 49.0 39.0
5/5/26 - 1830 42.4 41.0 95 15.4 WSW | 240 19.6 WSW | 246 49.0 39.0
5/5/26 - 1820 42.6 40.6 92 15.2 WSW | 240 20.0 WSW | 244 49.0 39.0
5/5/26 - 1810 43.4 40.6 90 13.0 SW | 231 20.8 WSW | 258 49.0 39.0
5/5/26 - 1800 44.0 40.9 89 13.5 SW | 230 21.8 WSW | 255 49.0 39.0
5/5/26 - 1750 44.8 41.0 87 13.6 SW | 228 21.2 SW | 220 49.0 39.0
5/5/26 - 1740 45.0 40.5 84 13.1 SW | 231 18.8 WSW | 250 49.0 39.0
5/5/26 - 1730 45.3 40.1 82 14.7 SW | 232 21.3 SW | 234 49.0 39.0
5/5/26 - 1720 45.3 39.5 80 10.9 SW | 229 20.3 SW | 233 49.0 39.0
5/5/26 - 1710 45.6 39.2 78 12.6 SW | 236 20.3 WSW | 249 49.0 39.0
5/5/26 - 1700 45.7 39.5 79 11.8 SW | 233 21.1 WSW | 244 49.0 39.0
5/5/26 - 1650 45.6 39.6 79 14.3 SW | 229 21.9 WSW | 244 49.0 39.0
5/5/26 - 1640 45.9 39.7 79 14.6 SW | 232 23.0 WSW | 242 49.0 39.0
5/5/26 - 1630 45.4 39.8 81 10.7 SW | 227 18.6 SW | 223 49.0 39.0
5/5/26 - 1620 45.0 40.0 82 11.1 SW | 230 20.5 WSW | 244 49.0 39.0
5/5/26 - 1610 44.6 39.7 83 14.7 WSW | 237 22.6 WSW | 240 49.0 39.0
5/5/26 - 1600 44.7 40.0 83 11.0 SW | 229 20.8 SW | 227 49.0 39.0
5/5/26 - 1550 45.4 40.1 82 10.8 WSW | 237 19.6 SW | 216 49.0 39.0
5/5/26 - 1540 45.1 40.1 82 13.0 WSW | 238 20.8 WSW | 257 49.0 39.0
5/5/26 - 1530 45.6 40.3 82 11.7 SW | 233 22.0 SW | 233 49.0 39.0
5/5/26 - 1520 45.1 39.5 80 15.6 SW | 233 22.8 SW | 231 49.0 39.0
5/5/26 - 1510 45.9 39.2 77 11.2 SW | 230 22.3 WSW | 245 49.0 39.0
5/5/26 - 1500 46.0 39.0 77 12.9 SW | 235 22.8 SW | 221 49.0 39.0
5/5/26 - 1450 46.2 39.5 77 10.6 SW | 228 19.5 WSW | 246 49.0 39.0
5/5/26 - 1440 46.3 39.5 77 12.2 SW | 228 22.1 WSW | 240 49.0 39.0
5/5/26 - 1430 46.1 39.2 77 12.8 SW | 232 21.6 WSW | 249 49.0 39.0
5/5/26 - 1420 46.8 40.2 78 10.4 SW | 227 22.2 W | 263 49.0 39.0
5/5/26 - 1410 47.4 39.8 75 12.9 SW | 228 23.3 WSW | 254 49.0 39.0
5/5/26 - 1400 47.1 39.6 75 11.8 SW | 227 20.3 SSW | 210 49.0 39.0
5/5/26 - 1350 45.8 39.3 78 12.4 SW | 219 20.2 SW | 217 46.7 39.0
5/5/26 - 1340 45.8 39.4 78 13.0 SW | 226 20.6 SW | 230 46.5 39.0
5/5/26 - 1330 43.8 42.5 95 12.8 SW | 227 21.9 WSW | 245 45.8 39.0
5/5/26 - 1320 43.9 43.9 100 11.5 SW | 227 19.1 SW | 230 45.8 39.0
5/5/26 - 1310 42.7 42.7 100 12.7 SW | 235 20.0 SW | 224 45.2 39.0
5/5/26 - 1300 43.0 43.0 100 11.6 SW | 231 18.3 SW | 225 44.4 39.0
5/5/26 - 1250 42.1 42.1 100 12.7 WSW | 238 21.0 WSW | 246 44.4 39.0
5/5/26 - 1240 41.6 41.6 100 12.0 SW | 231 19.8 SW | 216 44.4 39.0
5/5/26 - 1230 42.3 42.3 100 10.6 SW | 225 17.2 SW | 214 44.4 39.0
5/5/26 - 1220 42.7 42.7 100 10.2 SW | 227 17.5 SW | 234 44.4 39.0
5/5/26 - 1210 42.0 42.0 100 8.7 SW | 234 14.2 SW | 221 43.3 39.0
5/5/26 - 1200 41.2 41.2 100 10.2 SW | 233 15.2 WSW | 238 42.3 39.0
5/5/26 - 1150 41.5 41.5 100 11.9 WSW | 237 16.2 WSW | 238 42.2 39.0
5/5/26 - 1140 41.4 41.4 100 9.1 WSW | 243 15.9 WSW | 240 42.2 39.0
5/5/26 - 1130 40.8 40.8 100 11.5 WSW | 253 15.8 WSW | 244 42.2 39.0
5/5/26 - 1120 40.7 40.7 100 10.9 WSW | 248 18.1 WSW | 249 42.2 39.0
5/5/26 - 1110 40.9 40.9 100 10.0 WSW | 238 15.6 WSW | 237 42.2 39.0
5/5/26 - 1100 40.6 40.6 100 9.5 WSW | 241 13.7 SW | 232 42.2 39.0
5/5/26 - 1050 40.2 40.1 100 10.0 WSW | 256 16.4 SW | 235 42.2 39.0
5/5/26 - 1040 40.2 40.2 100 8.0 W | 268 15.0 WNW | 285 42.2 39.0
5/5/26 - 1030 39.9 39.9 100 8.4 NW | 307 11.5 NW | 310 42.2 39.0
5/5/26 - 1020 40.1 40.1 100 9.8 W | 281 14.6 WSW | 252 42.2 39.0
5/5/26 - 1010 40.5 40.5 100 8.4 WSW | 257 13.4 W | 259 42.2 39.0
5/5/26 - 1000 40.6 40.6 100 7.6 WSW | 246 12.9 W | 279 42.2 39.0
5/5/26 - 0950 40.7 40.7 100 11.6 SW | 235 18.1 WSW | 249 42.2 39.0
5/5/26 - 0940 40.8 40.8 100 12.7 SW | 228 18.6 SW | 226 42.2 39.0
5/5/26 - 0930 41.0 41.0 100 7.6 SW | 230 15.5 SW | 219 42.2 39.0
5/5/26 - 0920 40.1 40.1 100 10.5 WSW | 251 16.4 WSW | 255 42.2 39.0
5/5/26 - 0910 40.2 40.2 100 11.9 WSW | 249 17.8 WSW | 247 42.2 39.0
5/5/26 - 0900 40.9 40.9 100 10.6 SW | 235 19.6 SW | 226 42.2 39.0
5/5/26 - 0850 40.7 40.7 100 11.2 WSW | 242 18.0 WSW | 248 42.2 39.0
5/5/26 - 0840 41.2 41.2 100 13.3 SW | 234 21.0 WSW | 244 42.2 39.0
5/5/26 - 0830 41.1 41.1 100 11.2 WSW | 245 17.9 WSW | 258 42.2 39.0
5/5/26 - 0820 41.0 41.0 100 13.6 WSW | 254 17.6 WSW | 253 42.2 39.0
5/5/26 - 0810 40.8 40.8 100 10.8 W | 265 14.3 W | 272 42.2 39.0
5/5/26 - 0800 41.0 41.0 100 12.2 WSW | 252 15.8 W | 259 42.2 39.0
5/5/26 - 0750 41.2 41.2 100 10.7 WSW | 239 15.9 SW | 220 42.2 39.0
5/5/26 - 0740 41.5 41.5 100 9.1 WSW | 237 15.9 WSW | 252 42.2 39.0
5/5/26 - 0730 41.3 41.3 100 10.5 WSW | 242 15.0 WSW | 238 41.7 39.0
5/5/26 - 0720 41.4 41.4 100 11.8 WSW | 238 16.4 WSW | 246 41.7 39.0
5/5/26 - 0710 41.3 41.2 100 11.3 WSW | 247 14.8 WSW | 238 41.5 39.0
5/5/26 - 0700 40.9 40.9 100 11.8 WSW | 248 15.4 WSW | 256 41.4 39.0
5/5/26 - 0650 41.1 41.1 100 10.7 WSW | 239 15.9 WSW | 240 41.4 39.0
5/5/26 - 0640 41.0 41.0 100 11.6 WSW | 248 18.0 WSW | 254 41.4 39.0
5/5/26 - 0630 40.8 40.8 100 10.3 WSW | 240 14.3 WSW | 250 41.4 39.0
5/5/26 - 0620 41.0 41.0 100 9.8 WSW | 243 14.8 WSW | 257 41.4 39.0
5/5/26 - 0610 41.2 41.2 100 8.7 SW | 236 12.7 WSW | 250 41.4 39.0
5/5/26 - 0600 41.0 41.0 100 8.8 SW | 226 12.0 SW | 232 41.2 39.0
5/5/26 - 0550 40.9 40.9 100 9.0 SW | 227 13.0 SW | 228 41.2 39.0
5/5/26 - 0540 41.1 41.1 100 8.2 SW | 234 12.2 WSW | 239 41.2 39.0
5/5/26 - 0530 40.9 40.9 100 9.8 WSW | 242 14.0 WSW | 241 41.2 39.0
5/5/26 - 0520 41.1 41.0 100 9.8 SW | 236 13.0 WSW | 237 41.2 39.0
5/5/26 - 0510 40.9 40.9 100 9.8 SW | 235 14.0 SW | 229 41.0 39.0
5/5/26 - 0500 40.8 40.8 100 9.1 WSW | 237 11.8 SW | 234 41.0 39.0
5/5/26 - 0450 40.8 40.8 100 9.4 SW | 235 12.1 SW | 232 41.0 39.0
5/5/26 - 0440 40.8 40.8 100 8.5 SW | 232 11.8 SW | 232 41.0 39.0
5/5/26 - 0430 40.8 40.8 100 8.6 SW | 234 11.9 WSW | 240 40.9 39.0
5/5/26 - 0420 40.7 40.7 100 9.0 SW | 234 12.9 WSW | 240 40.9 39.0
5/5/26 - 0410 40.6 40.6 100 9.1 SW | 232 12.2 SW | 221 40.8 39.0
5/5/26 - 0400 40.5 40.5 100 6.7 SSW | 211 9.9 SW | 222 40.8 39.0
5/5/26 - 0350 40.6 40.6 100 7.4 SW | 223 9.1 SW | 221 40.8 39.0
5/5/26 - 0340 40.6 40.6 100 7.6 SW | 230 9.9 WSW | 245 40.6 39.0
5/5/26 - 0330 40.6 40.6 100 5.8 SW | 236 7.2 WSW | 238 40.6 39.0
5/5/26 - 0320 40.5 40.5 100 6.4 SW | 232 9.2 SW | 236 40.6 39.0
5/5/26 - 0310 40.3 40.3 100 7.4 SW | 236 9.0 SW | 227 40.4 39.0
5/5/26 - 0300 40.0 40.0 100 6.7 WSW | 237 8.7 WSW | 239 40.4 39.0
5/5/26 - 0250 39.6 39.5 100 6.9 SW | 233 8.9 WSW | 247 40.4 39.0
5/5/26 - 0240 39.2 39.2 100 7.3 SW | 226 10.4 SW | 226 40.4 39.0
5/5/26 - 0230 39.4 39.4 100 7.5 SW | 230 10.7 WSW | 252 40.4 39.0
5/5/26 - 0220 39.5 39.5 100 6.8 SW | 235 11.5 WSW | 256 40.4 39.0
5/5/26 - 0210 40.2 40.2 100 7.6 SW | 235 11.2 SW | 233 40.4 39.0
5/5/26 - 0200 40.0 40.0 100 7.8 WSW | 244 10.7 SW | 234 40.2 39.0
5/5/26 - 0150 39.7 39.7 100 9.0 SW | 235 12.5 SW | 236 40.1 39.0
5/5/26 - 0140 39.3 39.3 100 9.0 SW | 234 13.4 WSW | 237 40.1 39.0
5/5/26 - 0130 39.8 39.8 100 9.8 WSW | 238 12.9 WSW | 241 40.1 39.4
5/5/26 - 0120 39.9 39.8 100 10.0 WSW | 244 15.4 SW | 224 39.9 39.5
5/5/26 - 0110 39.8 39.7 100 9.7 SW | 234 13.5 SW | 222 39.9 39.5
5/5/26 - 0100 39.3 39.3 100 10.0 WSW | 239 13.2 SW | 220 48.3 38.6
5/5/26 - 0050 39.6 39.6 100 11.1 SW | 233 15.2 WSW | 251 48.3 38.6
5/5/26 - 0040 40.0 40.0 100 9.5 SW | 236 16.9 WSW | 243 48.3 38.6
5/5/26 - 0030 40.0 40.0 100 9.4 SW | 226 13.4 SW | 226 48.3 38.6
5/5/26 - 0020 40.0 40.0 100 10.4 WSW | 239 16.4 SW | 232 48.3 38.6
5/5/26 - 0010 40.5 40.4 100 10.8 WSW | 238 16.0 WSW | 240 48.3 38.6
5/5/26 - 0000 40.8 40.8 100 6.4 SW | 234 11.7 SW | 233 48.3 38.6
5/4/26 - 2350 40.7 40.7 100 8.6 SW | 232 12.4 SW | 230 48.3 38.6
5/4/26 - 2340 40.8 40.8 100 9.0 WSW | 239 12.5 WSW | 248 48.3 38.6
5/4/26 - 2330 40.5 40.5 100 10.1 WSW | 248 12.7 WSW | 244 48.3 38.6
5/4/26 - 2320 40.5 40.5 100 9.1 SW | 235 14.0 SW | 232 48.3 38.6
5/4/26 - 2310 40.6 40.6 100 8.7 SW | 230 14.6 SSW | 200 48.3 38.6
5/4/26 - 2300 40.6 40.6 100 8.7 SW | 234 13.7 SW | 225 48.3 38.6
5/4/26 - 2250 40.5 40.4 100 7.6 WSW | 245 12.5 WSW | 240 48.3 38.6
5/4/26 - 2240 40.5 40.5 100 9.3 SW | 232 14.2 WSW | 242 48.3 38.6
5/4/26 - 2230 40.8 40.8 100 8.4 SW | 235 14.8 WSW | 249 48.3 38.6
5/4/26 - 2220 41.2 41.2 100 10.4 SW | 235 17.8 WSW | 253 48.3 38.6
Max 47.4 43.9 100 15.6 - 23.3 - 49.0 39.5
Avg 41.7 40.5 96 10.2 - 15.5 - - -
Min 39.2 39.0 75 5.8 - 7.2 - 39.9 38.6